sensor_id;sensor_type;location;lat;lon;timestamp;P1;durP1;ratioP1;P2;durP2;ratioP2
55222;SDS011;41090;48.632;12.428;2023-04-03T00:02:06;5.30;;;4.80;;
55222;SDS011;41090;48.632;12.428;2023-04-03T00:04:31;8.17;;;4.97;;
55222;SDS011;41090;48.632;12.428;2023-04-03T00:06:57;5.83;;;4.73;;
55222;SDS011;41090;48.632;12.428;2023-04-03T00:09:22;5.10;;;4.70;;
55222;SDS011;41090;48.632;12.428;2023-04-03T00:11:47;5.70;;;5.10;;
55222;SDS011;41090;48.632;12.428;2023-04-03T00:14:12;5.80;;;5.17;;
55222;SDS011;41090;48.632;12.428;2023-04-03T00:16:38;5.23;;;4.73;;
55222;SDS011;41090;48.632;12.428;2023-04-03T00:19:03;5.67;;;5.07;;
55222;SDS011;41090;48.632;12.428;2023-04-03T00:21:28;5.57;;;4.93;;
55222;SDS011;41090;48.632;12.428;2023-04-03T00:23:53;5.40;;;4.90;;
55222;SDS011;41090;48.632;12.428;2023-04-03T00:26:21;5.10;;;4.60;;
55222;SDS011;41090;48.632;12.428;2023-04-03T00:28:46;5.20;;;4.70;;
55222;SDS011;41090;48.632;12.428;2023-04-03T00:31:13;4.80;;;4.37;;
55222;SDS011;41090;48.632;12.428;2023-04-03T00:33:39;5.13;;;4.63;;
55222;SDS011;41090;48.632;12.428;2023-04-03T00:36:07;5.20;;;4.70;;
55222;SDS011;41090;48.632;12.428;2023-04-03T00:38:33;5.73;;;4.73;;
55222;SDS011;41090;48.632;12.428;2023-04-03T00:40:59;5.00;;;4.60;;
55222;SDS011;41090;48.632;12.428;2023-04-03T00:43:30;4.77;;;4.27;;
55222;SDS011;41090;48.632;12.428;2023-04-03T00:45:56;5.47;;;4.87;;
55222;SDS011;41090;48.632;12.428;2023-04-03T00:48:26;5.27;;;4.40;;
55222;SDS011;41090;48.632;12.428;2023-04-03T00:50:53;5.57;;;4.73;;
55222;SDS011;41090;48.632;12.428;2023-04-03T00:53:22;4.83;;;4.43;;
55222;SDS011;41090;48.632;12.428;2023-04-03T00:55:48;4.97;;;4.57;;
55222;SDS011;41090;48.632;12.428;2023-04-03T00:58:15;5.33;;;4.83;;
55222;SDS011;41090;48.632;12.428;2023-04-03T01:00:42;5.17;;;4.67;;
55222;SDS011;41090;48.632;12.428;2023-04-03T01:03:09;4.47;;;4.07;;
55222;SDS011;41090;48.632;12.428;2023-04-03T01:05:34;5.80;;;4.30;;
55222;SDS011;41090;48.632;12.428;2023-04-03T01:08:07;5.10;;;4.60;;
55222;SDS011;41090;48.632;12.428;2023-04-03T01:10:32;4.60;;;4.20;;
55222;SDS011;41090;48.632;12.428;2023-04-03T01:12:57;5.07;;;4.57;;
55222;SDS011;41090;48.632;12.428;2023-04-03T01:15:25;4.77;;;4.37;;
55222;SDS011;41090;48.632;12.428;2023-04-03T01:17:52;4.57;;;4.17;;
55222;SDS011;41090;48.632;12.428;2023-04-03T01:20:34;4.40;;;4.00;;
55222;SDS011;41090;48.632;12.428;2023-04-03T01:25:37;6.17;;;4.30;;
55222;SDS011;41090;48.632;12.428;2023-04-03T01:28:03;4.37;;;3.97;;
55222;SDS011;41090;48.632;12.428;2023-04-03T01:30:33;4.97;;;3.83;;
55222;SDS011;41090;48.632;12.428;2023-04-03T01:33:00;4.03;;;3.57;;
55222;SDS011;41090;48.632;12.428;2023-04-03T01:35:25;4.23;;;3.83;;
55222;SDS011;41090;48.632;12.428;2023-04-03T01:37:51;4.83;;;3.80;;
55222;SDS011;41090;48.632;12.428;2023-04-03T01:40:17;4.00;;;3.57;;
55222;SDS011;41090;48.632;12.428;2023-04-03T01:42:42;5.07;;;3.97;;
55222;SDS011;41090;48.632;12.428;2023-04-03T01:45:08;4.03;;;3.63;;
55222;SDS011;41090;48.632;12.428;2023-04-03T01:47:33;4.50;;;3.73;;
55222;SDS011;41090;48.632;12.428;2023-04-03T01:49:58;4.40;;;3.77;;
55222;SDS011;41090;48.632;12.428;2023-04-03T01:54:53;4.67;;;4.17;;
55222;SDS011;41090;48.632;12.428;2023-04-03T01:57:18;4.97;;;4.00;;
55222;SDS011;41090;48.632;12.428;2023-04-03T01:59:43;4.93;;;4.20;;
55222;SDS011;41090;48.632;12.428;2023-04-03T02:02:09;4.37;;;4.00;;
55222;SDS011;41090;48.632;12.428;2023-04-03T02:04:34;4.30;;;3.87;;
55222;SDS011;41090;48.632;12.428;2023-04-03T02:06:59;4.07;;;3.73;;
55222;SDS011;41090;48.632;12.428;2023-04-03T02:09:25;4.57;;;3.90;;
55222;SDS011;41090;48.632;12.428;2023-04-03T02:11:51;4.60;;;4.13;;
55222;SDS011;41090;48.632;12.428;2023-04-03T02:14:17;6.33;;;4.30;;
55222;SDS011;41090;48.632;12.428;2023-04-03T02:16:42;4.53;;;3.97;;
55222;SDS011;41090;48.632;12.428;2023-04-03T02:19:07;4.50;;;4.10;;
55222;SDS011;41090;48.632;12.428;2023-04-03T02:21:32;4.90;;;4.40;;
55222;SDS011;41090;48.632;12.428;2023-04-03T02:23:58;7.23;;;4.20;;
55222;SDS011;41090;48.632;12.428;2023-04-03T02:26:23;5.87;;;4.47;;
55222;SDS011;41090;48.632;12.428;2023-04-03T02:28:48;4.87;;;4.30;;
55222;SDS011;41090;48.632;12.428;2023-04-03T02:31:13;5.43;;;4.47;;
55222;SDS011;41090;48.632;12.428;2023-04-03T02:33:39;4.70;;;4.20;;
55222;SDS011;41090;48.632;12.428;2023-04-03T02:36:05;5.17;;;4.67;;
55222;SDS011;41090;48.632;12.428;2023-04-03T02:38:31;5.40;;;4.67;;
55222;SDS011;41090;48.632;12.428;2023-04-03T02:40:59;4.60;;;4.20;;
55222;SDS011;41090;48.632;12.428;2023-04-03T02:43:25;5.23;;;4.13;;
55222;SDS011;41090;48.632;12.428;2023-04-03T02:45:50;4.60;;;4.07;;
55222;SDS011;41090;48.632;12.428;2023-04-03T02:48:15;5.00;;;4.50;;
55222;SDS011;41090;48.632;12.428;2023-04-03T02:50:41;5.23;;;4.73;;
55222;SDS011;41090;48.632;12.428;2023-04-03T02:53:07;4.40;;;4.00;;
55222;SDS011;41090;48.632;12.428;2023-04-03T02:55:32;4.70;;;4.30;;
55222;SDS011;41090;48.632;12.428;2023-04-03T02:57:57;4.93;;;4.43;;
55222;SDS011;41090;48.632;12.428;2023-04-03T03:00:22;4.93;;;4.33;;
55222;SDS011;41090;48.632;12.428;2023-04-03T03:02:48;4.63;;;4.20;;
55222;SDS011;41090;48.632;12.428;2023-04-03T03:05:13;4.67;;;4.27;;
55222;SDS011;41090;48.632;12.428;2023-04-03T03:07:39;4.93;;;4.43;;
55222;SDS011;41090;48.632;12.428;2023-04-03T03:10:05;5.23;;;4.70;;
55222;SDS011;41090;48.632;12.428;2023-04-03T03:12:30;5.07;;;4.63;;
55222;SDS011;41090;48.632;12.428;2023-04-03T03:15:01;5.23;;;4.73;;
55222;SDS011;41090;48.632;12.428;2023-04-03T03:17:26;5.23;;;4.53;;
55222;SDS011;41090;48.632;12.428;2023-04-03T03:19:51;4.90;;;4.40;;
55222;SDS011;41090;48.632;12.428;2023-04-03T03:24:46;5.07;;;4.57;;
55222;SDS011;41090;48.632;12.428;2023-04-03T03:27:11;6.40;;;5.10;;
55222;SDS011;41090;48.632;12.428;2023-04-03T03:29:37;5.00;;;4.50;;
55222;SDS011;41090;48.632;12.428;2023-04-03T03:32:02;5.53;;;4.47;;
55222;SDS011;41090;48.632;12.428;2023-04-03T03:34:27;6.30;;;5.07;;
55222;SDS011;41090;48.632;12.428;2023-04-03T03:36:52;5.17;;;4.67;;
55222;SDS011;41090;48.632;12.428;2023-04-03T03:39:18;5.87;;;5.27;;
55222;SDS011;41090;48.632;12.428;2023-04-03T03:41:43;5.33;;;4.77;;
55222;SDS011;41090;48.632;12.428;2023-04-03T03:44:08;5.77;;;5.13;;
55222;SDS011;41090;48.632;12.428;2023-04-03T03:46:33;6.00;;;5.37;;
55222;SDS011;41090;48.632;12.428;2023-04-03T03:48:59;6.73;;;5.60;;
55222;SDS011;41090;48.632;12.428;2023-04-03T03:51:24;5.60;;;5.00;;
55222;SDS011;41090;48.632;12.428;2023-04-03T03:53:49;8.53;;;5.30;;
55222;SDS011;41090;48.632;12.428;2023-04-03T03:56:15;5.90;;;5.30;;
55222;SDS011;41090;48.632;12.428;2023-04-03T03:58:40;5.20;;;4.70;;
55222;SDS011;41090;48.632;12.428;2023-04-03T04:01:05;5.10;;;4.70;;
55222;SDS011;41090;48.632;12.428;2023-04-03T04:03:31;5.57;;;5.07;;
55222;SDS011;41090;48.632;12.428;2023-04-03T04:05:56;5.87;;;5.33;;
55222;SDS011;41090;48.632;12.428;2023-04-03T04:08:22;6.40;;;5.10;;
55222;SDS011;41090;48.632;12.428;2023-04-03T04:10:47;6.40;;;5.80;;
55222;SDS011;41090;48.632;12.428;2023-04-03T04:13:12;6.60;;;5.90;;
55222;SDS011;41090;48.632;12.428;2023-04-03T04:15:37;7.20;;;5.30;;
55222;SDS011;41090;48.632;12.428;2023-04-03T04:18:03;6.20;;;5.43;;
55222;SDS011;41090;48.632;12.428;2023-04-03T04:20:28;7.33;;;5.50;;
55222;SDS011;41090;48.632;12.428;2023-04-03T04:22:53;6.10;;;5.23;;
55222;SDS011;41090;48.632;12.428;2023-04-03T04:25:19;5.83;;;5.30;;
55222;SDS011;41090;48.632;12.428;2023-04-03T04:27:44;6.33;;;5.40;;
55222;SDS011;41090;48.632;12.428;2023-04-03T04:30:09;6.20;;;4.80;;
55222;SDS011;41090;48.632;12.428;2023-04-03T04:32:35;6.10;;;5.50;;
55222;SDS011;41090;48.632;12.428;2023-04-03T04:35:06;6.10;;;5.50;;
55222;SDS011;41090;48.632;12.428;2023-04-03T04:37:32;7.03;;;6.20;;
55222;SDS011;41090;48.632;12.428;2023-04-03T04:39:57;6.93;;;5.60;;
55222;SDS011;41090;48.632;12.428;2023-04-03T04:42:22;5.57;;;5.00;;
55222;SDS011;41090;48.632;12.428;2023-04-03T04:44:49;6.30;;;5.73;;
55222;SDS011;41090;48.632;12.428;2023-04-03T04:47:14;6.70;;;5.50;;
55222;SDS011;41090;48.632;12.428;2023-04-03T04:49:39;6.60;;;5.67;;
55222;SDS011;41090;48.632;12.428;2023-04-03T04:52:04;6.73;;;6.07;;
55222;SDS011;41090;48.632;12.428;2023-04-03T04:54:30;8.60;;;6.20;;
55222;SDS011;41090;48.632;12.428;2023-04-03T04:56:55;7.10;;;6.37;;
55222;SDS011;41090;48.632;12.428;2023-04-03T04:59:21;7.53;;;6.67;;
55222;SDS011;41090;48.632;12.428;2023-04-03T05:01:46;7.10;;;6.27;;
55222;SDS011;41090;48.632;12.428;2023-04-03T05:04:11;8.20;;;6.17;;
55222;SDS011;41090;48.632;12.428;2023-04-03T05:06:37;8.53;;;6.40;;
55222;SDS011;41090;48.632;12.428;2023-04-03T05:09:03;8.53;;;6.30;;
55222;SDS011;41090;48.632;12.428;2023-04-03T05:11:28;7.90;;;6.37;;
55222;SDS011;41090;48.632;12.428;2023-04-03T05:13:53;9.03;;;6.33;;
55222;SDS011;41090;48.632;12.428;2023-04-03T05:16:18;6.97;;;6.27;;
55222;SDS011;41090;48.632;12.428;2023-04-03T05:18:46;13.47;;;9.87;;
55222;SDS011;41090;48.632;12.428;2023-04-03T05:21:11;11.13;;;8.73;;
55222;SDS011;41090;48.632;12.428;2023-04-03T05:23:36;9.53;;;8.53;;
55222;SDS011;41090;48.632;12.428;2023-04-03T05:26:01;7.90;;;7.10;;
55222;SDS011;41090;48.632;12.428;2023-04-03T05:28:32;7.30;;;6.50;;
55222;SDS011;41090;48.632;12.428;2023-04-03T05:30:58;7.67;;;6.87;;
55222;SDS011;41090;48.632;12.428;2023-04-03T05:33:24;6.33;;;5.73;;
55222;SDS011;41090;48.632;12.428;2023-04-03T05:35:51;7.70;;;6.40;;
55222;SDS011;41090;48.632;12.428;2023-04-03T05:38:16;8.30;;;6.60;;
55222;SDS011;41090;48.632;12.428;2023-04-03T05:40:41;9.93;;;6.87;;
55222;SDS011;41090;48.632;12.428;2023-04-03T05:43:06;7.67;;;6.87;;
55222;SDS011;41090;48.632;12.428;2023-04-03T05:45:32;7.30;;;6.53;;
55222;SDS011;41090;48.632;12.428;2023-04-03T05:47:57;8.07;;;7.13;;
55222;SDS011;41090;48.632;12.428;2023-04-03T05:50:22;7.10;;;6.40;;
55222;SDS011;41090;48.632;12.428;2023-04-03T05:52:48;6.30;;;5.77;;
55222;SDS011;41090;48.632;12.428;2023-04-03T05:55:14;6.63;;;6.00;;
55222;SDS011;41090;48.632;12.428;2023-04-03T05:57:39;6.83;;;6.20;;
55222;SDS011;41090;48.632;12.428;2023-04-03T06:00:05;7.97;;;6.40;;
55222;SDS011;41090;48.632;12.428;2023-04-03T06:02:31;8.03;;;6.50;;
55222;SDS011;41090;48.632;12.428;2023-04-03T06:04:56;6.80;;;6.10;;
55222;SDS011;41090;48.632;12.428;2023-04-03T06:07:22;7.30;;;6.50;;
55222;SDS011;41090;48.632;12.428;2023-04-03T06:09:48;8.40;;;6.77;;
55222;SDS011;41090;48.632;12.428;2023-04-03T06:12:13;8.20;;;6.87;;
55222;SDS011;41090;48.632;12.428;2023-04-03T06:14:39;7.77;;;6.80;;
55222;SDS011;41090;48.632;12.428;2023-04-03T06:17:05;9.30;;;8.30;;
55222;SDS011;41090;48.632;12.428;2023-04-03T06:19:31;8.33;;;6.70;;
55222;SDS011;41090;48.632;12.428;2023-04-03T06:21:56;8.07;;;5.77;;
55222;SDS011;41090;48.632;12.428;2023-04-03T06:24:22;7.10;;;6.33;;
55222;SDS011;41090;48.632;12.428;2023-04-03T06:26:49;8.07;;;5.90;;
55222;SDS011;41090;48.632;12.428;2023-04-03T06:29:16;7.57;;;6.20;;
55222;SDS011;41090;48.632;12.428;2023-04-03T06:31:42;7.17;;;6.40;;
55222;SDS011;41090;48.632;12.428;2023-04-03T06:34:07;9.30;;;6.20;;
55222;SDS011;41090;48.632;12.428;2023-04-03T06:36:33;8.60;;;6.03;;
55222;SDS011;41090;48.632;12.428;2023-04-03T06:38:59;8.10;;;6.40;;
55222;SDS011;41090;48.632;12.428;2023-04-03T06:41:24;7.73;;;5.57;;
55222;SDS011;41090;48.632;12.428;2023-04-03T06:43:51;7.03;;;5.60;;
55222;SDS011;41090;48.632;12.428;2023-04-03T06:46:18;8.70;;;5.67;;
55222;SDS011;41090;48.632;12.428;2023-04-03T06:48:44;6.97;;;5.43;;
55222;SDS011;41090;48.632;12.428;2023-04-03T06:51:20;7.53;;;5.80;;
55222;SDS011;41090;48.632;12.428;2023-04-03T06:53:49;8.23;;;5.93;;
55222;SDS011;41090;48.632;12.428;2023-04-03T06:56:14;9.43;;;5.80;;
55222;SDS011;41090;48.632;12.428;2023-04-03T06:58:40;7.03;;;5.70;;
55222;SDS011;41090;48.632;12.428;2023-04-03T07:01:06;5.60;;;5.00;;
55222;SDS011;41090;48.632;12.428;2023-04-03T07:03:32;7.97;;;5.60;;
55222;SDS011;41090;48.632;12.428;2023-04-03T07:05:57;7.30;;;5.33;;
55222;SDS011;41090;48.632;12.428;2023-04-03T07:08:22;5.87;;;5.00;;
55222;SDS011;41090;48.632;12.428;2023-04-03T07:10:48;7.63;;;5.43;;
55222;SDS011;41090;48.632;12.428;2023-04-03T07:13:14;5.40;;;4.90;;
55222;SDS011;41090;48.632;12.428;2023-04-03T07:15:40;5.70;;;5.13;;
55222;SDS011;41090;48.632;12.428;2023-04-03T07:18:05;5.33;;;4.83;;
55222;SDS011;41090;48.632;12.428;2023-04-03T07:20:40;6.40;;;5.23;;
55222;SDS011;41090;48.632;12.428;2023-04-03T07:23:05;6.97;;;4.83;;
55222;SDS011;41090;48.632;12.428;2023-04-03T07:25:30;7.33;;;4.87;;
55222;SDS011;41090;48.632;12.428;2023-04-03T07:27:56;6.47;;;4.77;;
55222;SDS011;41090;48.632;12.428;2023-04-03T07:30:21;6.67;;;4.90;;
55222;SDS011;41090;48.632;12.428;2023-04-03T07:32:47;5.70;;;4.73;;
55222;SDS011;41090;48.632;12.428;2023-04-03T07:35:12;6.97;;;4.70;;
55222;SDS011;41090;48.632;12.428;2023-04-03T07:37:37;7.27;;;4.13;;
55222;SDS011;41090;48.632;12.428;2023-04-03T07:40:03;6.27;;;4.40;;
55222;SDS011;41090;48.632;12.428;2023-04-03T07:42:29;7.57;;;4.30;;
55222;SDS011;41090;48.632;12.428;2023-04-03T07:44:54;4.47;;;3.67;;
55222;SDS011;41090;48.632;12.428;2023-04-03T07:47:19;5.50;;;3.37;;
55222;SDS011;41090;48.632;12.428;2023-04-03T07:49:45;3.77;;;3.20;;
55222;SDS011;41090;48.632;12.428;2023-04-03T07:52:12;5.57;;;3.33;;
55222;SDS011;41090;48.632;12.428;2023-04-03T07:54:38;4.60;;;3.20;;
55222;SDS011;41090;48.632;12.428;2023-04-03T07:57:03;4.40;;;2.90;;
55222;SDS011;41090;48.632;12.428;2023-04-03T07:59:28;5.10;;;3.47;;
55222;SDS011;41090;48.632;12.428;2023-04-03T08:01:54;3.40;;;3.10;;
55222;SDS011;41090;48.632;12.428;2023-04-03T08:04:19;3.63;;;2.63;;
55222;SDS011;41090;48.632;12.428;2023-04-03T08:06:44;5.37;;;3.10;;
55222;SDS011;41090;48.632;12.428;2023-04-03T08:09:10;5.43;;;2.93;;
55222;SDS011;41090;48.632;12.428;2023-04-03T08:11:35;3.80;;;3.07;;
55222;SDS011;41090;48.632;12.428;2023-04-03T08:14:01;5.10;;;3.30;;
55222;SDS011;41090;48.632;12.428;2023-04-03T08:16:27;3.07;;;2.57;;
55222;SDS011;41090;48.632;12.428;2023-04-03T08:18:53;3.50;;;2.73;;
55222;SDS011;41090;48.632;12.428;2023-04-03T08:21:18;5.67;;;3.07;;
55222;SDS011;41090;48.632;12.428;2023-04-03T08:23:43;5.00;;;3.13;;
55222;SDS011;41090;48.632;12.428;2023-04-03T08:26:13;4.53;;;3.07;;
55222;SDS011;41090;48.632;12.428;2023-04-03T08:28:39;5.13;;;2.83;;
55222;SDS011;41090;48.632;12.428;2023-04-03T08:31:05;4.40;;;2.87;;
55222;SDS011;41090;48.632;12.428;2023-04-03T08:33:31;4.03;;;2.47;;
55222;SDS011;41090;48.632;12.428;2023-04-03T08:35:56;5.20;;;3.23;;
55222;SDS011;41090;48.632;12.428;2023-04-03T08:38:21;6.87;;;4.70;;
55222;SDS011;41090;48.632;12.428;2023-04-03T08:41:25;4.50;;;2.97;;
55222;SDS011;41090;48.632;12.428;2023-04-03T08:46:05;5.17;;;3.73;;
55222;SDS011;41090;48.632;12.428;2023-04-03T08:48:41;7.93;;;5.33;;
55222;SDS011;41090;48.632;12.428;2023-04-03T08:53:41;4.73;;;3.90;;
55222;SDS011;41090;48.632;12.428;2023-04-03T08:56:08;4.13;;;3.00;;
55222;SDS011;41090;48.632;12.428;2023-04-03T08:58:41;3.33;;;2.50;;
55222;SDS011;41090;48.632;12.428;2023-04-03T09:01:19;3.20;;;2.50;;
55222;SDS011;41090;48.632;12.428;2023-04-03T09:03:45;4.73;;;2.90;;
55222;SDS011;41090;48.632;12.428;2023-04-03T09:06:23;3.87;;;3.13;;
55222;SDS011;41090;48.632;12.428;2023-04-03T09:14:07;4.03;;;2.90;;
55222;SDS011;41090;48.632;12.428;2023-04-03T09:16:39;3.77;;;2.50;;
55222;SDS011;41090;48.632;12.428;2023-04-03T09:21:45;3.10;;;2.80;;
55222;SDS011;41090;48.632;12.428;2023-04-03T09:24:12;5.03;;;2.87;;
55222;SDS011;41090;48.632;12.428;2023-04-03T09:26:45;3.20;;;2.50;;
55222;SDS011;41090;48.632;12.428;2023-04-03T09:29:14;3.10;;;2.43;;
55222;SDS011;41090;48.632;12.428;2023-04-03T09:31:42;3.63;;;2.20;;
55222;SDS011;41090;48.632;12.428;2023-04-03T09:36:44;2.83;;;2.20;;
55222;SDS011;41090;48.632;12.428;2023-04-03T09:39:10;3.53;;;2.57;;
55222;SDS011;41090;48.632;12.428;2023-04-03T09:41:36;3.60;;;2.00;;
55222;SDS011;41090;48.632;12.428;2023-04-03T09:44:01;3.73;;;2.20;;
55222;SDS011;41090;48.632;12.428;2023-04-03T09:46:30;2.97;;;2.20;;
55222;SDS011;41090;48.632;12.428;2023-04-03T09:48:57;3.00;;;2.20;;
55222;SDS011;41090;48.632;12.428;2023-04-03T09:51:29;2.57;;;2.20;;
55222;SDS011;41090;48.632;12.428;2023-04-03T09:53:55;2.53;;;2.33;;
55222;SDS011;41090;48.632;12.428;2023-04-03T09:56:22;6.97;;;2.70;;
55222;SDS011;41090;48.632;12.428;2023-04-03T09:58:48;2.40;;;2.03;;
55222;SDS011;41090;48.632;12.428;2023-04-03T10:01:31;2.78;;;2.20;;
55222;SDS011;41090;48.632;12.428;2023-04-03T10:06:28;3.55;;;1.98;;
55222;SDS011;41090;48.632;12.428;2023-04-03T10:09:01;1.83;;;1.50;;
55222;SDS011;41090;48.632;12.428;2023-04-03T10:11:27;2.70;;;1.98;;
55222;SDS011;41090;48.632;12.428;2023-04-03T10:13:57;2.30;;;1.80;;
55222;SDS011;41090;48.632;12.428;2023-04-03T10:16:44;2.15;;;1.73;;
55222;SDS011;41090;48.632;12.428;2023-04-03T10:19:21;1.90;;;1.70;;
55222;SDS011;41090;48.632;12.428;2023-04-03T10:21:57;2.55;;;1.50;;
55222;SDS011;41090;48.632;12.428;2023-04-03T10:24:33;3.20;;;1.70;;
55222;SDS011;41090;48.632;12.428;2023-04-03T10:34:45;1.98;;;1.70;;
55222;SDS011;41090;48.632;12.428;2023-04-03T10:44:37;2.22;;;1.75;;
55222;SDS011;41090;48.632;12.428;2023-04-03T10:52:17;2.22;;;1.70;;
55222;SDS011;41090;48.632;12.428;2023-04-03T10:57:18;2.85;;;1.80;;
55222;SDS011;41090;48.632;12.428;2023-04-03T10:59:45;2.60;;;1.60;;
55222;SDS011;41090;48.632;12.428;2023-04-03T11:02:16;2.35;;;1.73;;
55222;SDS011;41090;48.632;12.428;2023-04-03T11:04:45;2.80;;;2.08;;
55222;SDS011;41090;48.632;12.428;2023-04-03T11:07:23;2.55;;;1.90;;
55222;SDS011;41090;48.632;12.428;2023-04-03T11:09:52;2.33;;;1.80;;
55222;SDS011;41090;48.632;12.428;2023-04-03T11:12:21;2.95;;;2.25;;
55222;SDS011;41090;48.632;12.428;2023-04-03T11:14:48;2.85;;;2.05;;
55222;SDS011;41090;48.632;12.428;2023-04-03T11:22:42;3.22;;;2.22;;
55222;SDS011;41090;48.632;12.428;2023-04-03T11:27:49;1.92;;;1.50;;
55222;SDS011;41090;48.632;12.428;2023-04-03T11:33:00;2.28;;;1.70;;
55222;SDS011;41090;48.632;12.428;2023-04-03T11:35:28;2.55;;;1.90;;
55222;SDS011;41090;48.632;12.428;2023-04-03T11:37:54;2.13;;;1.80;;
55222;SDS011;41090;48.632;12.428;2023-04-03T11:42:48;2.38;;;1.85;;
55222;SDS011;41090;48.632;12.428;2023-04-03T11:47:43;2.20;;;1.58;;
55222;SDS011;41090;48.632;12.428;2023-04-03T11:50:11;3.15;;;1.77;;
55222;SDS011;41090;48.632;12.428;2023-04-03T11:52:55;2.30;;;1.80;;
55222;SDS011;41090;48.632;12.428;2023-04-03T12:08:26;2.75;;;2.15;;
55222;SDS011;41090;48.632;12.428;2023-04-03T12:13:39;3.60;;;2.63;;
55222;SDS011;41090;48.632;12.428;2023-04-03T12:16:27;2.58;;;1.73;;
55222;SDS011;41090;48.632;12.428;2023-04-03T12:21:18;3.45;;;2.42;;
55222;SDS011;41090;48.632;12.428;2023-04-03T12:28:54;2.90;;;1.98;;
55222;SDS011;41090;48.632;12.428;2023-04-03T12:31:20;2.30;;;1.92;;
55222;SDS011;41090;48.632;12.428;2023-04-03T12:36:30;3.28;;;2.20;;
55222;SDS011;41090;48.632;12.428;2023-04-03T12:39:04;4.43;;;2.50;;
55222;SDS011;41090;48.632;12.428;2023-04-03T12:41:42;3.37;;;2.40;;
55222;SDS011;41090;48.632;12.428;2023-04-03T12:46:42;3.57;;;3.03;;
55222;SDS011;41090;48.632;12.428;2023-04-03T12:51:38;3.23;;;2.03;;
55222;SDS011;41090;48.632;12.428;2023-04-03T12:54:29;5.43;;;4.93;;
55222;SDS011;41090;48.632;12.428;2023-04-03T12:59:36;5.57;;;4.17;;
55222;SDS011;41090;48.632;12.428;2023-04-03T13:02:02;5.63;;;3.43;;
55222;SDS011;41090;48.632;12.428;2023-04-03T13:04:28;5.20;;;4.10;;
55222;SDS011;41090;48.632;12.428;2023-04-03T13:06:53;5.10;;;3.90;;
55222;SDS011;41090;48.632;12.428;2023-04-03T13:09:20;3.47;;;2.60;;
55222;SDS011;41090;48.632;12.428;2023-04-03T13:11:51;3.60;;;2.57;;
55222;SDS011;41090;48.632;12.428;2023-04-03T13:14:26;3.30;;;2.73;;
55222;SDS011;41090;48.632;12.428;2023-04-03T13:19:18;2.77;;;2.47;;
55222;SDS011;41090;48.632;12.428;2023-04-03T13:21:44;3.57;;;2.53;;
55222;SDS011;41090;48.632;12.428;2023-04-03T13:24:10;3.00;;;2.10;;
55222;SDS011;41090;48.632;12.428;2023-04-03T13:26:36;2.87;;;2.60;;
55222;SDS011;41090;48.632;12.428;2023-04-03T13:29:04;5.63;;;4.20;;
55222;SDS011;41090;48.632;12.428;2023-04-03T13:31:30;2.80;;;2.30;;
55222;SDS011;41090;48.632;12.428;2023-04-03T13:36:43;3.90;;;2.47;;
55222;SDS011;41090;48.632;12.428;2023-04-03T13:41:40;4.27;;;2.70;;
55222;SDS011;41090;48.632;12.428;2023-04-03T13:46:52;3.23;;;2.47;;
55222;SDS011;41090;48.632;12.428;2023-04-03T13:51:46;4.00;;;2.73;;
55222;SDS011;41090;48.632;12.428;2023-04-03T13:54:34;3.43;;;2.50;;
55222;SDS011;41090;48.632;12.428;2023-04-03T13:56:58;3.90;;;2.40;;
55222;SDS011;41090;48.632;12.428;2023-04-03T13:59:27;3.30;;;2.27;;
55222;SDS011;41090;48.632;12.428;2023-04-03T14:01:55;2.97;;;2.40;;
55222;SDS011;41090;48.632;12.428;2023-04-03T14:04:32;2.80;;;2.20;;
55222;SDS011;41090;48.632;12.428;2023-04-03T14:06:58;3.07;;;2.27;;
55222;SDS011;41090;48.632;12.428;2023-04-03T14:09:25;4.87;;;2.67;;
55222;SDS011;41090;48.632;12.428;2023-04-03T14:11:55;4.27;;;3.20;;
55222;SDS011;41090;48.632;12.428;2023-04-03T14:14:23;5.10;;;2.80;;
55222;SDS011;41090;48.632;12.428;2023-04-03T14:16:59;3.27;;;2.47;;
55222;SDS011;41090;48.632;12.428;2023-04-03T14:19:34;3.13;;;2.30;;
55222;SDS011;41090;48.632;12.428;2023-04-03T14:22:11;3.00;;;2.50;;
55222;SDS011;41090;48.632;12.428;2023-04-03T14:24:37;3.60;;;2.77;;
55222;SDS011;41090;48.632;12.428;2023-04-03T14:27:05;4.13;;;3.10;;
55222;SDS011;41090;48.632;12.428;2023-04-03T14:29:36;5.60;;;2.50;;
55222;SDS011;41090;48.632;12.428;2023-04-03T14:32:01;4.43;;;2.40;;
55222;SDS011;41090;48.632;12.428;2023-04-03T14:36:57;2.63;;;2.00;;
55222;SDS011;41090;48.632;12.428;2023-04-03T14:39:22;3.00;;;2.37;;
55222;SDS011;41090;48.632;12.428;2023-04-03T14:41:47;3.13;;;2.40;;
55222;SDS011;41090;48.632;12.428;2023-04-03T14:44:13;4.00;;;2.40;;
55222;SDS011;41090;48.632;12.428;2023-04-03T14:46:39;3.43;;;2.40;;
55222;SDS011;41090;48.632;12.428;2023-04-03T14:49:13;3.97;;;2.77;;
55222;SDS011;41090;48.632;12.428;2023-04-03T14:51:39;3.33;;;2.50;;
55222;SDS011;41090;48.632;12.428;2023-04-03T14:54:05;4.47;;;2.70;;
55222;SDS011;41090;48.632;12.428;2023-04-03T14:56:31;3.33;;;2.57;;
55222;SDS011;41090;48.632;12.428;2023-04-03T14:59:00;3.00;;;2.30;;
55222;SDS011;41090;48.632;12.428;2023-04-03T15:01:26;3.47;;;2.40;;
55222;SDS011;41090;48.632;12.428;2023-04-03T15:03:51;4.97;;;2.70;;
55222;SDS011;41090;48.632;12.428;2023-04-03T15:06:16;4.17;;;2.70;;
55222;SDS011;41090;48.632;12.428;2023-04-03T15:08:43;2.97;;;2.50;;
55222;SDS011;41090;48.632;12.428;2023-04-03T15:11:09;3.27;;;2.40;;
55222;SDS011;41090;48.632;12.428;2023-04-03T15:13:35;3.10;;;2.57;;
55222;SDS011;41090;48.632;12.428;2023-04-03T15:16:00;2.93;;;2.57;;
55222;SDS011;41090;48.632;12.428;2023-04-03T15:18:26;4.97;;;3.00;;
55222;SDS011;41090;48.632;12.428;2023-04-03T15:20:52;4.67;;;2.60;;
55222;SDS011;41090;48.632;12.428;2023-04-03T15:23:17;2.93;;;2.60;;
55222;SDS011;41090;48.632;12.428;2023-04-03T15:25:43;4.47;;;2.60;;
55222;SDS011;41090;48.632;12.428;2023-04-03T15:28:31;4.73;;;2.50;;
55222;SDS011;41090;48.632;12.428;2023-04-03T15:30:55;3.93;;;2.63;;
55222;SDS011;41090;48.632;12.428;2023-04-03T15:33:20;5.33;;;3.50;;
55222;SDS011;41090;48.632;12.428;2023-04-03T15:35:45;3.63;;;2.80;;
55222;SDS011;41090;48.632;12.428;2023-04-03T15:38:11;4.50;;;3.10;;
55222;SDS011;41090;48.632;12.428;2023-04-03T15:40:36;7.10;;;4.67;;
55222;SDS011;41090;48.632;12.428;2023-04-03T15:43:02;18.90;;;11.57;;
55222;SDS011;41090;48.632;12.428;2023-04-03T15:45:29;19.17;;;11.97;;
55222;SDS011;41090;48.632;12.428;2023-04-03T15:47:54;6.20;;;4.00;;
55222;SDS011;41090;48.632;12.428;2023-04-03T15:50:20;4.17;;;2.43;;
55222;SDS011;41090;48.632;12.428;2023-04-03T15:52:47;3.07;;;2.77;;
55222;SDS011;41090;48.632;12.428;2023-04-03T15:55:13;3.47;;;2.40;;
55222;SDS011;41090;48.632;12.428;2023-04-03T15:57:38;2.80;;;2.50;;
55222;SDS011;41090;48.632;12.428;2023-04-03T16:00:04;3.60;;;2.60;;
55222;SDS011;41090;48.632;12.428;2023-04-03T16:02:29;2.60;;;2.30;;
55222;SDS011;41090;48.632;12.428;2023-04-03T16:04:56;3.43;;;2.27;;
55222;SDS011;41090;48.632;12.428;2023-04-03T16:07:23;3.57;;;2.60;;
55222;SDS011;41090;48.632;12.428;2023-04-03T16:09:49;3.17;;;2.30;;
55222;SDS011;41090;48.632;12.428;2023-04-03T16:12:14;3.83;;;2.60;;
55222;SDS011;41090;48.632;12.428;2023-04-03T16:14:41;3.60;;;2.43;;
55222;SDS011;41090;48.632;12.428;2023-04-03T16:17:11;3.93;;;2.73;;
55222;SDS011;41090;48.632;12.428;2023-04-03T16:19:39;5.63;;;3.30;;
55222;SDS011;41090;48.632;12.428;2023-04-03T16:22:04;4.73;;;2.80;;
55222;SDS011;41090;48.632;12.428;2023-04-03T16:24:30;3.83;;;2.70;;
55222;SDS011;41090;48.632;12.428;2023-04-03T16:26:57;4.20;;;2.80;;